sensor_id;sensor_type;location;lat;lon;timestamp;pressure;altitude;pressure_sealevel;temperature;humidity
23635;BME280;11994;51.038;16.974;2023-05-21T13:09:13;100361.11;;;26.15;45.12
23635;BME280;11994;51.038;16.974;2023-05-21T13:11:39;100360.77;;;26.10;44.40
23635;BME280;11994;51.038;16.974;2023-05-21T13:14:05;100361.87;;;26.06;43.97
23635;BME280;11994;51.038;16.974;2023-05-21T13:16:30;100366.40;;;26.03;44.30
23635;BME280;11994;51.038;16.974;2023-05-21T13:19:05;100360.48;;;26.01;44.74
23635;BME280;11994;51.038;16.974;2023-05-21T13:21:30;100356.92;;;26.01;44.63
23635;BME280;11994;51.038;16.974;2023-05-21T13:23:56;100355.15;;;26.05;43.91
23635;BME280;11994;51.038;16.974;2023-05-21T13:26:21;100354.70;;;26.12;43.72
23635;BME280;11994;51.038;16.974;2023-05-21T13:28:46;100353.25;;;26.14;44.23
23635;BME280;11994;51.038;16.974;2023-05-21T13:31:12;100351.99;;;26.14;44.74
23635;BME280;11994;51.038;16.974;2023-05-21T13:33:39;100352.70;;;26.16;44.44
23635;BME280;11994;51.038;16.974;2023-05-21T13:36:05;100351.40;;;26.17;43.96
23635;BME280;11994;51.038;16.974;2023-05-21T13:38:30;100348.17;;;26.19;44.53
23635;BME280;11994;51.038;16.974;2023-05-21T13:40:56;100344.70;;;26.22;44.60
23635;BME280;11994;51.038;16.974;2023-05-21T13:43:21;100338.64;;;26.25;44.69
23635;BME280;11994;51.038;16.974;2023-05-21T13:45:46;100340.15;;;26.27;43.96
23635;BME280;11994;51.038;16.974;2023-05-21T13:48:12;100342.52;;;26.30;43.05
23635;BME280;11994;51.038;16.974;2023-05-21T13:50:37;100335.92;;;26.34;43.68
23635;BME280;11994;51.038;16.974;2023-05-21T13:53:02;100330.73;;;26.32;43.48
23635;BME280;11994;51.038;16.974;2023-05-21T13:55:28;100338.48;;;26.31;42.93
23635;BME280;11994;51.038;16.974;2023-05-21T13:57:53;100343.10;;;26.32;43.35
23635;BME280;11994;51.038;16.974;2023-05-21T14:00:18;100339.58;;;26.23;42.69
23635;BME280;11994;51.038;16.974;2023-05-21T14:02:44;100339.09;;;26.12;42.80
23635;BME280;11994;51.038;16.974;2023-05-21T14:05:09;100334.67;;;26.09;42.91
23635;BME280;11994;51.038;16.974;2023-05-21T14:07:35;100333.54;;;26.08;43.46
23635;BME280;11994;51.038;16.974;2023-05-21T14:10:01;100332.58;;;26.09;43.73
23635;BME280;11994;51.038;16.974;2023-05-21T14:12:27;100340.52;;;26.10;43.51
23635;BME280;11994;51.038;16.974;2023-05-21T14:14:52;100338.84;;;26.05;43.09
23635;BME280;11994;51.038;16.974;2023-05-21T14:17:17;100335.71;;;25.95;43.27
23635;BME280;11994;51.038;16.974;2023-05-21T14:19:43;100335.80;;;25.87;43.40
23635;BME280;11994;51.038;16.974;2023-05-21T14:22:08;100330.81;;;25.81;43.35
23635;BME280;11994;51.038;16.974;2023-05-21T14:24:34;100335.56;;;25.80;43.27
23635;BME280;11994;51.038;16.974;2023-05-21T14:27:02;100337.50;;;25.78;43.45
23635;BME280;11994;51.038;16.974;2023-05-21T14:29:27;100339.10;;;25.76;42.64
23635;BME280;11994;51.038;16.974;2023-05-21T14:31:53;100335.98;;;25.73;42.50
23635;BME280;11994;51.038;16.974;2023-05-21T14:34:18;100332.26;;;25.72;43.55
23635;BME280;11994;51.038;16.974;2023-05-21T14:36:44;100328.95;;;25.75;43.44
23635;BME280;11994;51.038;16.974;2023-05-21T14:39:09;100330.90;;;25.78;43.79
23635;BME280;11994;51.038;16.974;2023-05-21T14:41:37;100333.40;;;25.80;43.49
23635;BME280;11994;51.038;16.974;2023-05-21T14:44:03;100332.87;;;25.80;43.53
23635;BME280;11994;51.038;16.974;2023-05-21T14:46:29;100329.63;;;25.78;43.51
23635;BME280;11994;51.038;16.974;2023-05-21T14:48:54;100328.48;;;25.77;43.38
23635;BME280;11994;51.038;16.974;2023-05-21T14:51:23;100329.56;;;25.77;43.17
23635;BME280;11994;51.038;16.974;2023-05-21T14:53:51;100326.56;;;25.74;43.11
23635;BME280;11994;51.038;16.974;2023-05-21T14:56:16;100321.05;;;25.69;43.45
23635;BME280;11994;51.038;16.974;2023-05-21T14:58:45;100314.04;;;25.63;43.23
23635;BME280;11994;51.038;16.974;2023-05-21T15:01:11;100314.40;;;25.59;43.43
23635;BME280;11994;51.038;16.974;2023-05-21T15:03:36;100314.89;;;25.57;43.63
23635;BME280;11994;51.038;16.974;2023-05-21T15:06:01;100312.55;;;25.58;43.87
23635;BME280;11994;51.038;16.974;2023-05-21T15:08:27;100311.23;;;25.58;43.34
23635;BME280;11994;51.038;16.974;2023-05-21T15:10:52;100308.52;;;25.58;43.42
23635;BME280;11994;51.038;16.974;2023-05-21T15:13:17;100311.81;;;25.62;43.23
23635;BME280;11994;51.038;16.974;2023-05-21T15:15:43;100312.30;;;25.65;43.31
23635;BME280;11994;51.038;16.974;2023-05-21T15:18:08;100309.13;;;25.68;43.01
23635;BME280;11994;51.038;16.974;2023-05-21T15:20:34;100310.36;;;25.72;42.86
23635;BME280;11994;51.038;16.974;2023-05-21T15:23:01;100310.13;;;25.77;42.76
23635;BME280;11994;51.038;16.974;2023-05-21T15:25:33;100308.70;;;25.80;42.90
23635;BME280;11994;51.038;16.974;2023-05-21T15:28:07;100310.11;;;25.82;42.77
23635;BME280;11994;51.038;16.974;2023-05-21T15:30:33;100307.34;;;25.87;42.69
23635;BME280;11994;51.038;16.974;2023-05-21T15:32:58;100306.71;;;25.90;42.77
23635;BME280;11994;51.038;16.974;2023-05-21T15:35:23;100305.69;;;25.92;42.34
23635;BME280;11994;51.038;16.974;2023-05-21T15:37:49;100310.50;;;25.92;42.05
23635;BME280;11994;51.038;16.974;2023-05-21T15:40:14;100310.40;;;25.89;41.56
23635;BME280;11994;51.038;16.974;2023-05-21T15:42:40;100305.62;;;25.84;41.25
23635;BME280;11994;51.038;16.974;2023-05-21T15:45:06;100305.30;;;25.79;40.79
23635;BME280;11994;51.038;16.974;2023-05-21T15:47:31;100304.75;;;25.77;41.36
23635;BME280;11994;51.038;16.974;2023-05-21T15:49:57;100307.02;;;25.80;41.20
23635;BME280;11994;51.038;16.974;2023-05-21T16:02:48;100295.52;;;25.85;41.07
23635;BME280;11994;51.038;16.974;2023-05-21T16:15:32;100289.46;;;25.99;41.53
23635;BME280;11994;51.038;16.974;2023-05-21T16:17:58;100291.84;;;25.94;40.97
23635;BME280;11994;51.038;16.974;2023-05-21T16:20:23;100290.54;;;25.91;40.66
23635;BME280;11994;51.038;16.974;2023-05-21T16:22:48;100293.24;;;25.84;40.41
23635;BME280;11994;51.038;16.974;2023-05-21T16:25:14;100295.97;;;25.77;40.28
23635;BME280;11994;51.038;16.974;2023-05-21T16:27:39;100295.52;;;25.68;40.03
23635;BME280;11994;51.038;16.974;2023-05-21T16:30:05;100290.92;;;25.52;39.96
23635;BME280;11994;51.038;16.974;2023-05-21T16:32:31;100287.91;;;25.37;39.71
23635;BME280;11994;51.038;16.974;2023-05-21T16:34:57;100290.15;;;25.28;40.09
23635;BME280;11994;51.038;16.974;2023-05-21T16:37:22;100291.76;;;25.21;40.19
23635;BME280;11994;51.038;16.974;2023-05-21T16:39:48;100291.71;;;25.15;40.04
23635;BME280;11994;51.038;16.974;2023-05-21T16:42:13;100288.95;;;25.08;40.31
23635;BME280;11994;51.038;16.974;2023-05-21T16:44:38;100291.02;;;25.02;40.77
23635;BME280;11994;51.038;16.974;2023-05-21T16:47:04;100290.23;;;24.98;41.15
23635;BME280;11994;51.038;16.974;2023-05-21T16:49:29;100293.33;;;24.96;41.59
23635;BME280;11994;51.038;16.974;2023-05-21T16:51:55;100298.35;;;24.91;41.73
23635;BME280;11994;51.038;16.974;2023-05-21T17:04:50;100298.44;;;24.75;42.41
23635;BME280;11994;51.038;16.974;2023-05-21T17:07:15;100301.58;;;24.67;42.54
23635;BME280;11994;51.038;16.974;2023-05-21T17:09:41;100302.17;;;24.62;42.58
23635;BME280;11994;51.038;16.974;2023-05-21T17:12:06;100303.52;;;24.56;42.65
23635;BME280;11994;51.038;16.974;2023-05-21T17:14:32;100305.36;;;24.51;42.89
23635;BME280;11994;51.038;16.974;2023-05-21T17:16:57;100307.40;;;24.46;43.01
23635;BME280;11994;51.038;16.974;2023-05-21T17:19:22;100310.27;;;24.41;43.09
23635;BME280;11994;51.038;16.974;2023-05-21T17:21:48;100315.95;;;24.37;43.31
23635;BME280;11994;51.038;16.974;2023-05-21T17:24:13;100314.60;;;24.32;43.19
23635;BME280;11994;51.038;16.974;2023-05-21T17:26:38;100312.34;;;24.26;43.33
23635;BME280;11994;51.038;16.974;2023-05-21T17:29:04;100313.22;;;24.20;43.53
23635;BME280;11994;51.038;16.974;2023-05-21T17:31:29;100315.89;;;24.15;43.57
23635;BME280;11994;51.038;16.974;2023-05-21T17:33:57;100312.91;;;24.10;43.38
23635;BME280;11994;51.038;16.974;2023-05-21T17:36:22;100314.88;;;24.06;43.50
23635;BME280;11994;51.038;16.974;2023-05-21T17:38:47;100310.88;;;24.02;43.65
23635;BME280;11994;51.038;16.974;2023-05-21T17:41:13;100311.02;;;23.98;43.52
23635;BME280;11994;51.038;16.974;2023-05-21T17:43:40;100313.26;;;23.94;43.76
23635;BME280;11994;51.038;16.974;2023-05-21T17:46:05;100311.10;;;23.90;43.85
23635;BME280;11994;51.038;16.974;2023-05-21T17:48:31;100309.40;;;23.86;43.92
23635;BME280;11994;51.038;16.974;2023-05-21T17:50:56;100307.52;;;23.80;44.09
23635;BME280;11994;51.038;16.974;2023-05-21T17:53:21;100311.08;;;23.76;44.12
23635;BME280;11994;51.038;16.974;2023-05-21T17:55:47;100309.61;;;23.69;44.18
23635;BME280;11994;51.038;16.974;2023-05-21T17:58:12;100315.45;;;23.63;44.14
23635;BME280;11994;51.038;16.974;2023-05-21T18:00:38;100315.06;;;23.56;44.26
23635;BME280;11994;51.038;16.974;2023-05-21T18:03:03;100318.92;;;23.50;44.23
23635;BME280;11994;51.038;16.974;2023-05-21T18:05:28;100318.70;;;23.44;44.35
23635;BME280;11994;51.038;16.974;2023-05-21T18:07:54;100320.82;;;23.37;44.63
23635;BME280;11994;51.038;16.974;2023-05-21T18:10:19;100322.17;;;23.31;44.76
23635;BME280;11994;51.038;16.974;2023-05-21T18:12:45;100318.83;;;23.23;44.83
23635;BME280;11994;51.038;16.974;2023-05-21T18:15:12;100322.64;;;23.18;45.01
23635;BME280;11994;51.038;16.974;2023-05-21T18:17:37;100324.15;;;23.11;45.20
23635;BME280;11994;51.038;16.974;2023-05-21T18:20:03;100324.39;;;23.06;45.28
23635;BME280;11994;51.038;16.974;2023-05-21T18:22:28;100329.75;;;23.01;45.45
23635;BME280;11994;51.038;16.974;2023-05-21T18:24:54;100330.13;;;22.96;45.55
23635;BME280;11994;51.038;16.974;2023-05-21T18:27:19;100328.36;;;22.91;45.73
23635;BME280;11994;51.038;16.974;2023-05-21T18:29:45;100330.37;;;22.85;45.78
23635;BME280;11994;51.038;16.974;2023-05-21T18:32:13;100330.27;;;22.79;45.86
23635;BME280;11994;51.038;16.974;2023-05-21T18:34:40;100332.60;;;22.74;45.95
23635;BME280;11994;51.038;16.974;2023-05-21T18:37:08;100336.23;;;22.68;46.07
23635;BME280;11994;51.038;16.974;2023-05-21T18:39:33;100330.77;;;22.62;46.24
23635;BME280;11994;51.038;16.974;2023-05-21T18:41:58;100329.45;;;22.58;46.31
23635;BME280;11994;51.038;16.974;2023-05-21T18:44:24;100330.95;;;22.55;46.52
23635;BME280;11994;51.038;16.974;2023-05-21T18:46:50;100332.58;;;22.52;46.53
23635;BME280;11994;51.038;16.974;2023-05-21T18:49:15;100333.21;;;22.48;46.59
23635;BME280;11994;51.038;16.974;2023-05-21T18:51:41;100332.15;;;22.43;46.73
23635;BME280;11994;51.038;16.974;2023-05-21T18:54:06;100330.70;;;22.38;46.76
23635;BME280;11994;51.038;16.974;2023-05-21T18:56:32;100331.44;;;22.33;46.94
23635;BME280;11994;51.038;16.974;2023-05-21T18:58:58;100333.33;;;22.26;47.23
23635;BME280;11994;51.038;16.974;2023-05-21T19:01:23;100338.80;;;22.19;47.27
23635;BME280;11994;51.038;16.974;2023-05-21T19:03:48;100339.65;;;22.12;47.44
23635;BME280;11994;51.038;16.974;2023-05-21T19:06:14;100337.04;;;22.06;47.56
23635;BME280;11994;51.038;16.974;2023-05-21T19:08:39;100336.17;;;22.01;47.67
23635;BME280;11994;51.038;16.974;2023-05-21T19:11:06;100336.20;;;21.95;47.72
23635;BME280;11994;51.038;16.974;2023-05-21T19:13:32;100335.83;;;21.90;48.04
23635;BME280;11994;51.038;16.974;2023-05-21T19:15:58;100333.41;;;21.84;48.04
23635;BME280;11994;51.038;16.974;2023-05-21T19:18:25;100340.66;;;21.79;48.21
23635;BME280;11994;51.038;16.974;2023-05-21T19:20:54;100340.73;;;21.73;48.29
23635;BME280;11994;51.038;16.974;2023-05-21T19:23:19;100345.42;;;21.67;48.52
23635;BME280;11994;51.038;16.974;2023-05-21T19:25:45;100344.30;;;21.62;48.40
23635;BME280;11994;51.038;16.974;2023-05-21T19:28:10;100343.70;;;21.58;48.53
23635;BME280;11994;51.038;16.974;2023-05-21T19:30:36;100344.88;;;21.53;48.69
23635;BME280;11994;51.038;16.974;2023-05-21T19:33:01;100347.14;;;21.49;48.85
23635;BME280;11994;51.038;16.974;2023-05-21T19:35:27;100344.30;;;21.44;49.02
23635;BME280;11994;51.038;16.974;2023-05-21T19:37:52;100340.95;;;21.38;49.17
23635;BME280;11994;51.038;16.974;2023-05-21T19:40:22;100336.67;;;21.33;49.17
23635;BME280;11994;51.038;16.974;2023-05-21T19:42:48;100338.66;;;21.27;49.43
23635;BME280;11994;51.038;16.974;2023-05-21T19:45:13;100336.55;;;21.21;49.39
23635;BME280;11994;51.038;16.974;2023-05-21T19:47:39;100335.06;;;21.14;49.49
23635;BME280;11994;51.038;16.974;2023-05-21T19:50:06;100336.25;;;21.07;49.67
23635;BME280;11994;51.038;16.974;2023-05-21T19:52:31;100336.14;;;21.00;49.90
23635;BME280;11994;51.038;16.974;2023-05-21T19:54:56;100332.11;;;20.94;50.12
23635;BME280;11994;51.038;16.974;2023-05-21T19:57:29;100331.71;;;20.86;50.29
23635;BME280;11994;51.038;16.974;2023-05-21T19:59:56;100331.22;;;20.79;50.39
23635;BME280;11994;51.038;16.974;2023-05-21T20:02:22;100328.33;;;20.75;50.68
23635;BME280;11994;51.038;16.974;2023-05-21T20:04:48;100329.41;;;20.72;50.57
23635;BME280;11994;51.038;16.974;2023-05-21T20:07:14;100327.19;;;20.68;50.67
23635;BME280;11994;51.038;16.974;2023-05-21T20:09:40;100330.25;;;20.61;50.90
23635;BME280;11994;51.038;16.974;2023-05-21T20:12:06;100332.27;;;20.55;51.03
23635;BME280;11994;51.038;16.974;2023-05-21T20:14:31;100332.05;;;20.49;51.28
23635;BME280;11994;51.038;16.974;2023-05-21T20:16:59;100328.69;;;20.44;51.33
23635;BME280;11994;51.038;16.974;2023-05-21T20:19:25;100325.90;;;20.37;51.49
23635;BME280;11994;51.038;16.974;2023-05-21T20:21:50;100325.59;;;20.31;51.70
23635;BME280;11994;51.038;16.974;2023-05-21T20:24:16;100323.77;;;20.26;51.86
23635;BME280;11994;51.038;16.974;2023-05-21T20:26:41;100319.63;;;20.21;51.82
23635;BME280;11994;51.038;16.974;2023-05-21T20:29:09;100319.96;;;20.18;52.07
23635;BME280;11994;51.038;16.974;2023-05-21T20:31:35;100316.46;;;20.12;52.14
23635;BME280;11994;51.038;16.974;2023-05-21T20:34:01;100314.73;;;20.05;52.33
23635;BME280;11994;51.038;16.974;2023-05-21T20:36:32;100317.04;;;19.99;52.54
23635;BME280;11994;51.038;16.974;2023-05-21T20:38:58;100317.89;;;19.94;52.56
23635;BME280;11994;51.038;16.974;2023-05-21T20:41:28;100315.63;;;19.87;52.83
23635;BME280;11994;51.038;16.974;2023-05-21T20:44:02;100313.80;;;19.82;53.13
23635;BME280;11994;51.038;16.974;2023-05-21T20:46:34;100318.58;;;19.76;53.13
23635;BME280;11994;51.038;16.974;2023-05-21T20:49:05;100320.00;;;19.73;53.31
23635;BME280;11994;51.038;16.974;2023-05-21T20:51:31;100319.54;;;19.70;53.38
23635;BME280;11994;51.038;16.974;2023-05-21T20:53:56;100322.64;;;19.65;53.59
23635;BME280;11994;51.038;16.974;2023-05-21T20:56:22;100318.70;;;19.60;53.74
23635;BME280;11994;51.038;16.974;2023-05-21T20:58:49;100318.80;;;19.55;53.91
23635;BME280;11994;51.038;16.974;2023-05-21T21:01:15;100321.34;;;19.51;54.09
23635;BME280;11994;51.038;16.974;2023-05-21T21:03:42;100318.59;;;19.47;54.12
23635;BME280;11994;51.038;16.974;2023-05-21T21:06:11;100319.76;;;19.42;54.22
23635;BME280;11994;51.038;16.974;2023-05-21T21:08:37;100323.36;;;19.38;54.42
23635;BME280;11994;51.038;16.974;2023-05-21T21:11:05;100320.60;;;19.33;54.55
23635;BME280;11994;51.038;16.974;2023-05-21T21:13:30;100317.06;;;19.27;54.76
23635;BME280;11994;51.038;16.974;2023-05-21T21:15:55;100315.46;;;19.21;54.86
23635;BME280;11994;51.038;16.974;2023-05-21T21:18:21;100313.45;;;19.15;54.97
23635;BME280;11994;51.038;16.974;2023-05-21T21:20:46;100314.62;;;19.10;55.14
23635;BME280;11994;51.038;16.974;2023-05-21T21:23:14;100315.16;;;19.04;55.35
23635;BME280;11994;51.038;16.974;2023-05-21T21:25:40;100317.02;;;18.99;55.49
23635;BME280;11994;51.038;16.974;2023-05-21T21:28:05;100317.27;;;18.95;55.63
23635;BME280;11994;51.038;16.974;2023-05-21T21:30:31;100321.09;;;18.90;55.77
23635;BME280;11994;51.038;16.974;2023-05-21T21:32:56;100324.69;;;18.86;55.97
23635;BME280;11994;51.038;16.974;2023-05-21T21:35:21;100325.98;;;18.82;56.11
23635;BME280;11994;51.038;16.974;2023-05-21T21:37:47;100327.14;;;18.77;56.29
23635;BME280;11994;51.038;16.974;2023-05-21T21:40:12;100330.96;;;18.72;56.42
23635;BME280;11994;51.038;16.974;2023-05-21T21:42:38;100331.44;;;18.67;56.63
23635;BME280;11994;51.038;16.974;2023-05-21T21:45:03;100329.27;;;18.61;56.85
23635;BME280;11994;51.038;16.974;2023-05-21T21:47:29;100327.70;;;18.55;57.04
23635;BME280;11994;51.038;16.974;2023-05-21T21:49:54;100328.27;;;18.47;57.32
23635;BME280;11994;51.038;16.974;2023-05-21T21:52:20;100330.73;;;18.41;57.46
23635;BME280;11994;51.038;16.974;2023-05-21T21:54:46;100334.65;;;18.37;57.60
23635;BME280;11994;51.038;16.974;2023-05-21T21:57:11;100336.56;;;18.31;57.85
23635;BME280;11994;51.038;16.974;2023-05-21T21:59:37;100337.20;;;18.26;57.99
23635;BME280;11994;51.038;16.974;2023-05-21T22:02:03;100337.34;;;18.20;58.20
23635;BME280;11994;51.038;16.974;2023-05-21T22:04:28;100334.96;;;18.14;58.44
23635;BME280;11994;51.038;16.974;2023-05-21T22:06:54;100335.47;;;18.12;58.59
23635;BME280;11994;51.038;16.974;2023-05-21T22:09:19;100338.88;;;18.07;58.74
23635;BME280;11994;51.038;16.974;2023-05-21T22:11:47;100337.70;;;18.03;58.95
23635;BME280;11994;51.038;16.974;2023-05-21T22:14:12;100341.80;;;17.99;58.99
23635;BME280;11994;51.038;16.974;2023-05-21T22:16:37;100341.45;;;17.95;59.16
23635;BME280;11994;51.038;16.974;2023-05-21T22:19:03;100341.10;;;17.92;59.38
23635;BME280;11994;51.038;16.974;2023-05-21T22:21:28;100337.96;;;17.88;59.50
23635;BME280;11994;51.038;16.974;2023-05-21T22:23:57;100337.42;;;17.84;59.61
23635;BME280;11994;51.038;16.974;2023-05-21T22:26:23;100340.70;;;17.79;59.81
23635;BME280;11994;51.038;16.974;2023-05-21T22:28:48;100342.02;;;17.74;59.97
23635;BME280;11994;51.038;16.974;2023-05-21T22:31:14;100343.91;;;17.72;60.24
23635;BME280;11994;51.038;16.974;2023-05-21T22:33:40;100346.08;;;17.71;60.42
23635;BME280;11994;51.038;16.974;2023-05-21T22:36:06;100345.42;;;17.70;60.68
23635;BME280;11994;51.038;16.974;2023-05-21T22:38:31;100345.67;;;17.68;60.73
23635;BME280;11994;51.038;16.974;2023-05-21T22:40:57;100342.58;;;17.67;60.77
23635;BME280;11994;51.038;16.974;2023-05-21T22:43:22;100342.05;;;17.63;60.86
23635;BME280;11994;51.038;16.974;2023-05-21T22:45:47;100339.96;;;17.59;61.05
23635;BME280;11994;51.038;16.974;2023-05-21T22:48:13;100339.69;;;17.54;61.17
23635;BME280;11994;51.038;16.974;2023-05-21T22:50:38;100342.59;;;17.49;61.26
23635;BME280;11994;51.038;16.974;2023-05-21T22:53:04;100342.09;;;17.45;61.40
23635;BME280;11994;51.038;16.974;2023-05-21T22:55:30;100337.66;;;17.42;61.58
23635;BME280;11994;51.038;16.974;2023-05-21T22:57:55;100338.98;;;17.36;61.66
23635;BME280;11994;51.038;16.974;2023-05-21T23:00:20;100337.46;;;17.31;61.88
23635;BME280;11994;51.038;16.974;2023-05-21T23:02:47;100330.23;;;17.27;62.10
23635;BME280;11994;51.038;16.974;2023-05-21T23:05:12;100333.07;;;17.23;62.31
23635;BME280;11994;51.038;16.974;2023-05-21T23:07:38;100333.75;;;17.20;62.53
23635;BME280;11994;51.038;16.974;2023-05-21T23:10:04;100335.19;;;17.19;62.79
23635;BME280;11994;51.038;16.974;2023-05-21T23:12:29;100339.50;;;17.18;62.99
23635;BME280;11994;51.038;16.974;2023-05-21T23:14:55;100340.23;;;17.17;63.14
23635;BME280;11994;51.038;16.974;2023-05-21T23:17:20;100338.89;;;17.16;63.15
23635;BME280;11994;51.038;16.974;2023-05-21T23:19:46;100339.63;;;17.12;63.31
23635;BME280;11994;51.038;16.974;2023-05-21T23:22:14;100337.12;;;17.05;63.42
23635;BME280;11994;51.038;16.974;2023-05-21T23:24:39;100337.35;;;17.00;63.55
23635;BME280;11994;51.038;16.974;2023-05-21T23:27:05;100336.83;;;16.97;63.64
23635;BME280;11994;51.038;16.974;2023-05-21T23:29:30;100338.90;;;16.94;63.73
23635;BME280;11994;51.038;16.974;2023-05-21T23:31:56;100341.48;;;16.92;63.96
23635;BME280;11994;51.038;16.974;2023-05-21T23:34:21;100335.61;;;16.89;63.98
23635;BME280;11994;51.038;16.974;2023-05-21T23:36:49;100330.36;;;16.84;64.12
23635;BME280;11994;51.038;16.974;2023-05-21T23:39:14;100324.04;;;16.79;64.24
23635;BME280;11994;51.038;16.974;2023-05-21T23:41:40;100323.27;;;16.77;64.40
23635;BME280;11994;51.038;16.974;2023-05-21T23:44:05;100329.46;;;16.77;64.54
23635;BME280;11994;51.038;16.974;2023-05-21T23:46:30;100330.36;;;16.76;64.77
23635;BME280;11994;51.038;16.974;2023-05-21T23:48:56;100328.20;;;16.77;64.81
23635;BME280;11994;51.038;16.974;2023-05-21T23:51:21;100329.15;;;16.76;64.87
23635;BME280;11994;51.038;16.974;2023-05-21T23:53:47;100329.40;;;16.75;64.96
23635;BME280;11994;51.038;16.974;2023-05-21T23:56:12;100328.13;;;16.72;64.98
23635;BME280;11994;51.038;16.974;2023-05-21T23:58:37;100325.40;;;16.69;65.01
